Portada
METAR-TAF:

METAR-TAF

Aeropuertos :

Chengdu, China

Aeropuerto Internacional de Chengdú-Shuangliu

latitud: 30-40N, longitud: 104-01E, altitud: 508 m

Observación

El informe se hizo hace 1 hora y 7 minutos, a las 12:00 UTC
Viento 2 kt del sur-suroeste
Temperatura 15°C
Humedad 59%
Presión 1024 hPa
Visibilidad 10 km o más
Escasas nubes a una altura de 5000 ft

METAR: ZUUU 261200Z 21001MPS 9999 FEW050 15/07 Q1024 NOSIG

Hora: 21:07 (13:07 UTC)

Pronóstico

El informe se hizo hace 4 horas y 58 minutos, a las 08:09 UTC
Pronóstico válido del 26 a las 12 UTC al 27 a las 12 UTC
Viento 6 kt del suroeste
Visibilidad: 5000 m
Nubes dispersas a una altura de 5000 ft
neblina

TAF: ZUUU 260809Z 2612/2712 22003MPS 5000 BR SCT050 TX18/2707Z TN10/2623Z

Observaciones y pronósticos meteorológicos de más de 4000 aeropuertos (mensajes METAR y TAF).

Los puntos amarillos y rojos representan las estaciones disponibles.

Ponga el ratón en el punto deseado para ver el nombre de la estación.

Haga clic para ver las observaciones y los pronósticos meteorológicos.

Para cambiar el mapa : haga clic en los botones verdes con una cruz de color negro para hacer un zoom, en el botón verde con un guión para alejar o en las flechas verdes para mapas adyacentes.


METAR-TAF: